createdAt,value
2022-12-12T00:01:34.685Z,24.90
2022-12-12T00:04:01.023Z,24.00
2022-12-12T00:06:28.221Z,23.60
2022-12-12T00:08:55.072Z,24.23
2022-12-12T00:11:22.732Z,24.63
2022-12-12T00:13:49.710Z,23.13
2022-12-12T00:16:16.574Z,24.43
2022-12-12T00:18:43.046Z,24.37
2022-12-12T00:21:19.273Z,24.50
2022-12-12T00:23:45.979Z,22.77
2022-12-12T00:26:19.228Z,24.70
2022-12-12T00:28:46.146Z,23.77
2022-12-12T00:31:12.877Z,21.27
2022-12-12T00:33:39.505Z,22.63
2022-12-12T00:36:06.527Z,23.77
2022-12-12T00:38:33.081Z,24.83
2022-12-12T00:41:01.112Z,23.47
2022-12-12T00:43:27.566Z,26.20
2022-12-12T00:45:54.206Z,23.80
2022-12-12T00:48:20.983Z,24.60
2022-12-12T00:50:47.421Z,24.50
2022-12-12T00:53:13.787Z,23.27
2022-12-12T00:55:40.253Z,22.83
2022-12-12T00:58:06.599Z,23.23
2022-12-12T01:00:33.834Z,24.33
2022-12-12T01:03:00.606Z,23.60
2022-12-12T01:05:27.965Z,24.57
2022-12-12T01:07:54.302Z,24.13
2022-12-12T01:10:20.730Z,24.43
2022-12-12T01:12:47.103Z,25.17
2022-12-12T01:15:13.657Z,24.80
2022-12-12T01:17:40.170Z,23.30
2022-12-12T01:20:14.748Z,24.10
2022-12-12T01:22:41.048Z,22.53
2022-12-12T01:25:08.045Z,22.97
2022-12-12T01:27:34.478Z,24.07
2022-12-12T01:30:00.824Z,24.40
2022-12-12T01:32:28.510Z,24.40
2022-12-12T01:34:55.042Z,24.83
2022-12-12T01:37:21.435Z,24.10
2022-12-12T01:39:48.191Z,25.37
2022-12-12T01:42:18.831Z,24.70
2022-12-12T01:44:48.850Z,25.17
2022-12-12T01:47:18.228Z,25.38
2022-12-12T01:49:49.353Z,25.80
2022-12-12T01:52:21.388Z,25.67
2022-12-12T01:54:53.136Z,25.67
2022-12-12T01:57:29.893Z,24.77
2022-12-12T01:59:58.316Z,25.33
2022-12-12T02:02:25.168Z,25.70
2022-12-12T02:04:51.747Z,25.43
2022-12-12T02:07:18.199Z,24.30
2022-12-12T02:09:47.254Z,24.70
2022-12-12T02:12:15.166Z,29.17
2022-12-12T02:14:46.363Z,27.80
2022-12-12T02:17:31.854Z,26.80
2022-12-12T02:20:19.266Z,27.23
2022-12-12T02:22:54.316Z,27.23
2022-12-12T02:25:42.368Z,27.37
2022-12-12T02:28:24.345Z,27.83
2022-12-12T02:30:59.383Z,26.10
2022-12-12T02:33:50.644Z,25.47
2022-12-12T02:36:30.562Z,27.13
2022-12-12T02:38:59.868Z,26.23
2022-12-12T02:41:46.612Z,28.70
2022-12-12T02:44:57.814Z,25.03
2022-12-12T02:47:29.689Z,25.67
2022-12-12T02:50:02.964Z,27.23
2022-12-12T02:52:29.806Z,26.83
2022-12-12T02:54:56.260Z,26.97
2022-12-12T02:57:24.771Z,26.90
2022-12-12T03:00:02.338Z,26.40
2022-12-12T03:03:10.081Z,26.67
2022-12-12T03:06:03.601Z,27.03
2022-12-12T03:08:53.092Z,29.10
2022-12-12T03:11:43.611Z,26.80
2022-12-12T03:14:20.340Z,25.58
2022-12-12T03:17:13.045Z,24.43
2022-12-12T03:19:46.201Z,23.57
2022-12-12T03:22:24.953Z,24.97
2022-12-12T03:25:07.526Z,24.33
2022-12-12T03:28:09.028Z,23.47
2022-12-12T03:30:42.711Z,22.80
2022-12-12T03:33:18.828Z,22.17
2022-12-12T03:35:56.141Z,23.10
2022-12-12T03:38:28.224Z,22.70
2022-12-12T03:41:01.529Z,21.27
2022-12-12T03:43:35.892Z,20.60
2022-12-12T03:46:25.638Z,23.20
2022-12-12T03:49:08.844Z,21.43
2022-12-12T03:51:44.900Z,22.40
2022-12-12T03:54:28.354Z,21.53
2022-12-12T03:57:01.496Z,22.73
2022-12-12T03:59:34.139Z,21.77
2022-12-12T04:02:02.675Z,20.93
2022-12-12T04:04:36.523Z,23.03
2022-12-12T04:07:14.602Z,21.83
2022-12-12T04:09:42.187Z,21.87
2022-12-12T04:12:34.521Z,21.07
2022-12-12T04:15:50.796Z,22.50
2022-12-12T04:18:34.369Z,21.67
2022-12-12T04:21:33.724Z,21.03
2022-12-12T04:24:38.806Z,19.10
2022-12-12T04:27:12.472Z,20.47
2022-12-12T04:29:58.650Z,18.13
2022-12-12T04:32:28.277Z,19.03
2022-12-12T04:35:03.329Z,18.97
2022-12-12T04:37:38.654Z,19.47
2022-12-12T04:40:09.315Z,18.27
2022-12-12T04:42:46.167Z,20.58
2022-12-12T04:45:20.974Z,20.17
2022-12-12T04:47:51.121Z,17.40
2022-12-12T04:50:21.558Z,16.85
2022-12-12T04:52:51.972Z,20.20
2022-12-12T04:55:27.639Z,18.85
2022-12-12T04:57:55.107Z,20.47
2022-12-12T05:00:23.536Z,18.33
2022-12-12T05:02:58.116Z,18.93
2022-12-12T05:05:43.718Z,18.53
2022-12-12T05:08:21.435Z,18.53
2022-12-12T05:10:56.364Z,18.27
2022-12-12T05:18:48.523Z,19.50
2022-12-12T05:21:15.820Z,21.00
2022-12-12T05:23:42.239Z,20.90
2022-12-12T05:26:10.713Z,22.47
2022-12-12T05:28:37.431Z,20.73
2022-12-12T05:31:04.326Z,21.97
2022-12-12T05:33:30.849Z,23.00
2022-12-12T05:35:57.180Z,23.53
2022-12-12T05:38:23.562Z,23.10
2022-12-12T05:40:49.902Z,22.17
2022-12-12T05:43:16.331Z,22.60
2022-12-12T05:45:42.983Z,23.83
2022-12-12T05:48:09.492Z,24.47
2022-12-12T05:50:35.868Z,23.43
2022-12-12T05:53:02.410Z,21.17
2022-12-12T05:55:29.047Z,22.23
2022-12-12T05:57:55.447Z,21.73
2022-12-12T06:00:22.018Z,20.37
2022-12-12T06:02:48.494Z,19.83
2022-12-12T06:05:15.583Z,20.80
2022-12-12T06:07:42.149Z,21.70
2022-12-12T06:10:09.258Z,21.43
2022-12-12T06:12:35.787Z,21.00
2022-12-12T06:15:02.505Z,21.27
2022-12-12T06:17:33.083Z,21.27
2022-12-12T06:20:00.227Z,19.50
2022-12-12T06:22:26.621Z,21.37
2022-12-12T06:24:53.050Z,21.67
2022-12-12T06:27:19.777Z,22.13
2022-12-12T06:29:46.226Z,20.93
2022-12-12T06:32:12.702Z,21.17
2022-12-12T06:34:39.493Z,18.33
2022-12-12T06:37:06.790Z,19.97
2022-12-12T06:39:33.189Z,22.53
2022-12-12T06:41:59.691Z,19.73
2022-12-12T06:44:26.201Z,21.03
2022-12-12T06:46:52.538Z,23.43
2022-12-12T06:49:18.935Z,21.77
2022-12-12T06:51:45.302Z,20.90
2022-12-12T06:54:13.623Z,21.30
2022-12-12T06:56:46.274Z,22.43
2022-12-12T06:59:15.216Z,26.23
2022-12-12T07:01:41.823Z,22.47
2022-12-12T07:04:08.447Z,20.50
2022-12-12T07:06:34.990Z,21.13
2022-12-12T07:09:01.357Z,21.80
2022-12-12T07:11:28.524Z,21.60
2022-12-12T07:13:57.203Z,20.23
2022-12-12T07:16:23.864Z,22.43
2022-12-12T07:18:50.640Z,19.97
2022-12-12T07:21:19.448Z,21.93
2022-12-12T07:23:46.491Z,23.80
2022-12-12T07:26:15.434Z,21.47
2022-12-12T07:28:42.148Z,22.53
2022-12-12T07:31:11.019Z,22.33
2022-12-12T07:33:43.566Z,21.90
2022-12-12T07:36:11.593Z,21.50
2022-12-12T07:38:38.502Z,21.30
2022-12-12T07:41:06.653Z,22.70
2022-12-12T07:43:39.996Z,22.37
2022-12-12T07:46:11.179Z,22.47
2022-12-12T07:48:37.741Z,20.87
2022-12-12T07:51:04.693Z,21.40
2022-12-12T07:53:31.168Z,21.73
2022-12-12T07:55:57.636Z,24.20
2022-12-12T07:58:24.057Z,22.67
2022-12-12T08:00:50.474Z,21.43
2022-12-12T08:03:17.034Z,19.90
2022-12-12T08:05:43.869Z,19.00
2022-12-12T08:08:10.767Z,21.60
2022-12-12T08:10:40.404Z,20.47
2022-12-12T08:13:07.111Z,20.80
2022-12-12T08:15:33.970Z,20.73
2022-12-12T08:18:00.501Z,20.37
2022-12-12T08:20:27.046Z,19.87
2022-12-12T08:22:53.377Z,20.17
2022-12-12T08:25:19.883Z,20.30
2022-12-12T08:27:46.250Z,18.90
2022-12-12T08:30:13.099Z,20.93
2022-12-12T08:32:39.590Z,21.30
2022-12-12T08:35:06.678Z,19.37
2022-12-12T08:37:33.052Z,18.20
2022-12-12T08:39:59.408Z,19.27
2022-12-12T08:42:26.112Z,18.37
2022-12-12T08:44:52.739Z,17.83
2022-12-12T08:47:19.052Z,19.20
2022-12-12T08:49:45.453Z,17.00
2022-12-12T08:52:12.055Z,19.67
2022-12-12T08:54:38.452Z,20.17
2022-12-12T08:57:04.897Z,17.80
2022-12-12T08:59:31.261Z,18.70
2022-12-12T09:01:57.673Z,18.93
2022-12-12T09:04:24.422Z,17.53
2022-12-12T09:06:50.876Z,18.90
2022-12-12T09:09:17.360Z,19.10
2022-12-12T09:11:44.176Z,19.10
2022-12-12T09:14:10.750Z,18.60
2022-12-12T09:16:37.140Z,18.20
2022-12-12T09:19:04.794Z,18.23
2022-12-12T09:21:31.181Z,18.70
2022-12-12T09:23:57.552Z,17.73
2022-12-12T09:26:24.056Z,18.40
2022-12-12T09:28:50.442Z,17.30
2022-12-12T09:31:16.854Z,18.83
2022-12-12T09:33:43.352Z,18.63
2022-12-12T09:36:11.718Z,17.70
2022-12-12T09:38:38.154Z,18.67
2022-12-12T09:41:18.617Z,18.07
2022-12-12T09:43:50.405Z,17.70
2022-12-12T09:46:40.393Z,16.73
2022-12-12T09:49:44.255Z,16.43
2022-12-12T09:52:17.559Z,19.93
2022-12-12T09:54:44.574Z,18.40
2022-12-12T09:57:25.740Z,19.00
2022-12-12T10:00:02.099Z,17.23
2022-12-12T10:02:47.154Z,17.07
2022-12-12T10:05:49.232Z,18.30
2022-12-12T10:08:42.676Z,18.23
2022-12-12T10:11:13.542Z,18.43
2022-12-12T10:16:14.271Z,16.77
2022-12-12T10:18:44.991Z,17.07
2022-12-12T10:21:21.107Z,18.85
2022-12-12T10:23:53.231Z,16.43
2022-12-12T10:26:25.326Z,18.47
2022-12-12T10:28:55.772Z,18.47
2022-12-12T10:32:01.271Z,17.13
2022-12-12T10:34:36.813Z,17.17
2022-12-12T10:37:33.632Z,19.30
2022-12-12T10:40:15.347Z,18.63
2022-12-12T10:42:55.362Z,17.37
2022-12-12T10:45:32.202Z,18.40
2022-12-12T10:47:58.683Z,18.20
2022-12-12T10:50:39.475Z,18.37
2022-12-12T10:53:10.169Z,17.55
2022-12-12T10:55:45.707Z,17.63
2022-12-12T10:58:12.348Z,18.33
2022-12-12T11:00:43.562Z,17.07
2022-12-12T11:03:19.267Z,17.90
2022-12-12T11:05:47.595Z,19.00
2022-12-12T11:08:19.889Z,17.37
2022-12-12T11:10:59.459Z,18.27
2022-12-12T11:13:26.041Z,18.10
2022-12-12T11:16:13.031Z,16.33
2022-12-12T11:18:40.088Z,16.87
2022-12-12T11:21:10.871Z,16.80
2022-12-12T11:23:52.572Z,18.75
2022-12-12T11:26:21.564Z,16.30
2022-12-12T11:29:02.290Z,17.27
2022-12-12T11:31:34.151Z,16.38
2022-12-12T11:34:04.360Z,16.20
2022-12-12T11:36:38.172Z,17.35
2022-12-12T11:39:28.122Z,16.80
2022-12-12T11:41:59.220Z,18.10
2022-12-12T11:44:32.221Z,17.03
2022-12-12T11:47:25.552Z,16.67
2022-12-12T11:49:58.664Z,18.10
2022-12-12T11:52:33.257Z,16.67
2022-12-12T11:55:00.766Z,17.13
2022-12-12T11:57:27.161Z,16.90
2022-12-12T12:00:14.859Z,17.70
2022-12-12T12:02:50.242Z,16.73
2022-12-12T12:05:32.965Z,17.37
2022-12-12T12:08:24.113Z,17.80
2022-12-12T12:11:05.685Z,16.97
2022-12-12T12:14:03.827Z,14.83
2022-12-12T12:17:08.831Z,16.90
2022-12-12T12:20:01.190Z,15.80
2022-12-12T12:22:57.417Z,17.83
2022-12-12T12:25:28.241Z,17.10
2022-12-12T12:28:06.682Z,16.67
2022-12-12T12:31:08.525Z,17.20
2022-12-12T12:34:30.873Z,16.03
2022-12-12T12:37:36.815Z,15.73
2022-12-12T12:40:31.467Z,16.10
2022-12-12T12:43:16.434Z,15.43
2022-12-12T12:45:56.392Z,15.38
2022-12-12T12:48:30.770Z,14.17
2022-12-12T12:51:33.731Z,16.83
2022-12-12T12:54:06.407Z,14.07
2022-12-12T12:56:44.226Z,14.63
2022-12-12T12:59:17.154Z,15.00
2022-12-12T13:01:47.589Z,15.33
2022-12-12T13:04:24.203Z,14.02
2022-12-12T13:07:41.092Z,15.10
2022-12-12T13:10:21.895Z,12.50
2022-12-12T13:13:06.955Z,13.57
2022-12-12T13:15:39.278Z,13.15
2022-12-12T13:18:12.130Z,12.75
2022-12-12T13:20:42.028Z,13.47
2022-12-12T13:23:20.454Z,12.60
2022-12-12T13:25:58.273Z,12.47
2022-12-12T13:28:33.025Z,13.53
2022-12-12T13:31:22.374Z,14.10
2022-12-12T13:34:04.399Z,12.20
2022-12-12T13:36:40.668Z,12.57
2022-12-12T13:39:22.297Z,12.07
2022-12-12T13:41:59.814Z,13.32
2022-12-12T13:44:38.519Z,14.30
2022-12-12T13:47:23.546Z,11.13
2022-12-12T13:49:55.137Z,11.50
2022-12-12T13:52:26.954Z,13.30
2022-12-12T13:55:12.957Z,13.13
2022-12-12T13:57:57.404Z,12.00
2022-12-12T14:00:25.507Z,11.67
2022-12-12T14:03:01.302Z,10.77
2022-12-12T14:05:43.330Z,11.67
2022-12-12T14:08:12.524Z,10.97
2022-12-12T14:10:52.393Z,12.20
2022-12-12T14:13:21.574Z,13.17
2022-12-12T14:15:58.460Z,13.50
2022-12-12T14:18:30.483Z,11.87
2022-12-12T14:21:07.254Z,11.87
2022-12-12T14:23:42.229Z,12.60
2022-12-12T14:26:27.242Z,11.07
2022-12-12T14:29:18.488Z,10.67
2022-12-12T14:32:06.695Z,12.10
2022-12-12T14:34:51.886Z,11.73
2022-12-12T14:37:52.129Z,17.67
2022-12-12T14:40:22.919Z,16.23
2022-12-12T14:43:18.480Z,12.57
2022-12-12T14:45:51.782Z,14.53
2022-12-12T14:48:29.782Z,11.87
2022-12-12T14:51:27.703Z,10.93
2022-12-12T14:53:58.813Z,9.70
2022-12-12T14:56:29.847Z,12.27
2022-12-12T14:59:02.640Z,11.30
2022-12-12T15:01:34.110Z,10.47
2022-12-12T15:04:04.084Z,10.40
2022-12-12T15:06:45.456Z,9.30
2022-12-12T15:09:30.315Z,9.80
2022-12-12T15:12:05.912Z,9.73
2022-12-12T15:14:32.264Z,7.93
2022-12-12T15:17:01.887Z,7.00
2022-12-12T15:19:41.288Z,7.53
2022-12-12T15:22:28.536Z,8.20
2022-12-12T15:24:56.703Z,7.60
2022-12-12T15:27:46.978Z,8.13
2022-12-12T15:30:30.792Z,8.60
2022-12-12T15:33:01.190Z,11.23
2022-12-12T15:35:28.028Z,9.88
2022-12-12T15:38:02.010Z,10.53
2022-12-12T15:40:30.978Z,13.90
2022-12-12T15:43:07.255Z,14.43
2022-12-12T15:45:39.897Z,14.37
2022-12-12T15:48:12.492Z,13.23
2022-12-12T15:50:41.663Z,12.70
2022-12-12T15:53:24.901Z,14.10
2022-12-12T15:56:06.582Z,15.37
2022-12-12T15:58:38.073Z,13.80
2022-12-12T16:01:20.653Z,13.90
2022-12-12T16:04:03.421Z,13.77
2022-12-12T16:06:42.224Z,14.30
2022-12-12T16:09:11.680Z,13.30
2022-12-12T16:11:46.107Z,13.73
2022-12-12T16:14:24.866Z,13.00
2022-12-12T16:17:05.722Z,12.97
2022-12-12T16:19:47.423Z,12.40
2022-12-12T16:22:23.915Z,11.73
2022-12-12T16:24:53.425Z,11.83
2022-12-12T16:27:20.461Z,11.83
2022-12-12T16:29:47.655Z,11.63
2022-12-12T16:32:17.428Z,11.53
2022-12-12T16:34:44.967Z,12.67
2022-12-12T16:37:16.437Z,13.50
2022-12-12T16:39:42.997Z,13.00
2022-12-12T16:42:16.668Z,14.57
2022-12-12T16:44:43.925Z,15.43
2022-12-12T16:47:17.966Z,14.87
2022-12-12T16:49:45.055Z,16.07
2022-12-12T16:52:13.399Z,16.07
2022-12-12T16:54:40.609Z,15.07
2022-12-12T16:57:07.090Z,16.00
2022-12-12T16:59:33.703Z,15.37
2022-12-12T17:02:00.163Z,15.37
2022-12-12T17:04:26.755Z,15.57
2022-12-12T17:06:53.705Z,16.50
2022-12-12T17:09:21.579Z,15.90
2022-12-12T17:11:51.012Z,15.85
2022-12-12T17:14:23.123Z,15.90
2022-12-12T17:16:50.455Z,16.10
2022-12-12T17:19:17.326Z,16.00
2022-12-12T17:21:43.944Z,14.97
2022-12-12T17:24:10.817Z,14.83
2022-12-12T17:26:38.732Z,14.03
2022-12-12T17:29:07.122Z,14.90
2022-12-12T17:31:34.159Z,14.53
2022-12-12T17:34:01.781Z,14.90
2022-12-12T17:36:28.227Z,14.10
2022-12-12T17:38:54.992Z,14.77
2022-12-12T17:41:21.408Z,15.60
2022-12-12T17:43:53.621Z,15.83
2022-12-12T17:46:22.464Z,15.27
2022-12-12T17:48:49.125Z,15.50
2022-12-12T17:51:21.588Z,15.33
2022-12-12T17:53:48.087Z,16.50
2022-12-12T17:56:17.279Z,18.17
2022-12-12T17:58:45.717Z,18.33
2022-12-12T18:01:15.690Z,22.67
2022-12-12T18:03:43.204Z,28.85
2022-12-12T18:06:10.507Z,24.97
2022-12-12T18:08:38.331Z,23.07
2022-12-12T18:11:09.794Z,22.60
2022-12-12T18:13:36.866Z,26.17
2022-12-12T18:16:03.448Z,25.03
2022-12-12T18:18:29.928Z,25.37
2022-12-12T18:20:56.520Z,24.23
2022-12-12T18:23:22.944Z,24.70
2022-12-12T18:25:49.669Z,22.03
2022-12-12T18:28:16.044Z,22.23
2022-12-12T18:30:42.443Z,22.90
2022-12-12T18:33:10.838Z,23.37
2022-12-12T18:35:37.319Z,22.97
2022-12-12T18:38:03.960Z,23.20
2022-12-12T18:40:30.583Z,23.13
2022-12-12T18:42:57.026Z,23.30
2022-12-12T18:45:23.462Z,23.23
2022-12-12T18:47:50.166Z,25.90
2022-12-12T18:50:16.793Z,26.73
2022-12-12T18:52:43.359Z,23.33
2022-12-12T18:55:10.716Z,23.43
2022-12-12T18:57:37.350Z,24.03
2022-12-12T19:00:05.094Z,23.97
2022-12-12T19:02:32.661Z,24.33
2022-12-12T19:04:59.887Z,24.27
2022-12-12T19:07:26.305Z,24.00
2022-12-12T19:09:52.893Z,26.33
2022-12-12T19:12:19.492Z,23.63
2022-12-12T19:15:08.125Z,24.73
2022-12-12T19:17:32.332Z,28.33
2022-12-12T19:19:58.736Z,27.13
2022-12-12T19:25:13.619Z,24.90
2022-12-12T19:27:39.984Z,25.67
2022-12-12T19:30:07.108Z,24.93
2022-12-12T19:32:33.563Z,24.97
2022-12-12T19:35:00.370Z,27.47
2022-12-12T19:37:26.809Z,27.73
2022-12-12T19:39:53.470Z,28.47
2022-12-12T19:42:20.515Z,28.17
2022-12-12T19:44:47.023Z,27.80
2022-12-12T19:47:13.374Z,29.50
2022-12-12T19:49:40.165Z,29.07
2022-12-12T19:52:12.155Z,29.03
2022-12-12T19:54:40.378Z,25.90
2022-12-12T19:57:06.977Z,27.50
2022-12-12T19:59:33.328Z,27.23
2022-12-12T20:01:59.757Z,27.40
2022-12-12T20:04:26.234Z,28.73
2022-12-12T20:06:52.913Z,28.20
2022-12-12T20:09:25.345Z,27.43
2022-12-12T20:11:52.657Z,27.00
2022-12-12T20:14:24.472Z,27.00
2022-12-12T20:16:52.515Z,27.37
2022-12-12T20:19:20.389Z,27.97
2022-12-12T20:22:04.030Z,29.17
2022-12-12T20:24:33.822Z,26.47
2022-12-12T20:27:02.131Z,25.37
2022-12-12T20:29:28.727Z,25.33
2022-12-12T20:31:55.267Z,24.60
2022-12-12T20:34:21.948Z,24.07
2022-12-12T20:36:48.641Z,25.57
2022-12-12T20:39:17.872Z,24.27
2022-12-12T20:41:44.753Z,23.60
2022-12-12T20:44:13.351Z,23.97
2022-12-12T20:46:42.115Z,25.87
2022-12-12T20:49:10.430Z,27.00
2022-12-12T20:54:24.723Z,24.63
2022-12-12T20:56:52.396Z,24.80
2022-12-12T20:59:18.793Z,22.77
2022-12-12T21:01:45.775Z,23.03
2022-12-12T21:04:12.314Z,22.83
2022-12-12T21:06:41.622Z,24.30
2022-12-12T21:09:10.683Z,24.07
2022-12-12T21:11:38.627Z,24.73
2022-12-12T21:14:06.743Z,24.47
2022-12-12T21:16:36.755Z,23.57
2022-12-12T21:19:06.395Z,24.63
2022-12-12T21:21:33.973Z,24.90
2022-12-12T21:24:01.160Z,25.87
2022-12-12T21:26:30.647Z,25.23
2022-12-12T21:28:59.076Z,25.47
2022-12-12T21:31:28.459Z,24.47
2022-12-12T21:33:55.336Z,25.93
2022-12-12T21:36:23.771Z,25.03
2022-12-12T21:38:51.716Z,25.00
2022-12-12T21:41:20.533Z,25.03
2022-12-12T21:43:48.894Z,24.10
2022-12-12T21:46:21.510Z,25.63
2022-12-12T21:48:48.964Z,24.67
2022-12-12T21:51:16.380Z,25.80
2022-12-12T21:53:43.033Z,24.40
2022-12-12T21:56:17.317Z,22.87
2022-12-12T21:58:46.144Z,23.30
2022-12-12T22:01:18.654Z,23.57
2022-12-12T22:03:47.377Z,24.77
2022-12-12T22:06:24.332Z,22.30
2022-12-12T22:08:51.353Z,24.77
2022-12-12T22:11:34.400Z,25.03
2022-12-12T22:14:06.694Z,26.50
2022-12-12T22:16:33.784Z,25.30
2022-12-12T22:19:05.806Z,27.00
2022-12-12T22:21:33.801Z,27.17
2022-12-12T22:24:01.170Z,26.83
2022-12-12T22:26:33.964Z,26.73
2022-12-12T22:29:04.729Z,27.07
2022-12-12T22:34:17.786Z,27.50
2022-12-12T22:36:45.259Z,27.43
2022-12-12T22:39:20.391Z,26.80
2022-12-12T22:41:47.062Z,26.77
2022-12-12T22:44:16.473Z,28.33
2022-12-12T22:46:47.934Z,27.10
2022-12-12T22:49:16.192Z,24.77
2022-12-12T22:51:43.635Z,27.20
2022-12-12T22:54:10.391Z,25.87
2022-12-12T22:56:38.168Z,26.80
2022-12-12T22:59:05.535Z,26.83
2022-12-12T23:01:32.443Z,24.43
2022-12-12T23:03:59.425Z,23.87
2022-12-12T23:06:31.746Z,25.37
2022-12-12T23:09:03.496Z,24.17
2022-12-12T23:11:31.255Z,24.83
2022-12-12T23:14:18.330Z,23.17
2022-12-12T23:16:45.555Z,25.70
2022-12-12T23:19:14.428Z,25.10
2022-12-12T23:21:40.891Z,25.80
2022-12-12T23:24:07.658Z,22.90
2022-12-12T23:26:38.714Z,24.07
2022-12-12T23:29:07.032Z,24.67
2022-12-12T23:31:35.522Z,25.70
2022-12-12T23:34:05.567Z,25.43
2022-12-12T23:36:32.203Z,22.95
2022-12-12T23:39:01.022Z,23.70
2022-12-12T23:41:28.442Z,24.33
2022-12-12T23:43:55.439Z,23.43
2022-12-12T23:46:23.609Z,22.00
2022-12-12T23:48:49.922Z,23.73
2022-12-12T23:51:16.341Z,24.30
2022-12-12T23:53:42.734Z,24.07
2022-12-12T23:56:09.420Z,24.60
2022-12-12T23:58:35.961Z,23.37
